Mountain Park, Oklahoma
Current Conditions -  °F | °C
As of 6:58 PM on Sunday 23 Nov 2014 (Local Time) from KLTS Reporting Station
Clear Clear  
Wind Chill: 45°   Ceiling: Unl
Heat Index: 49°   Visibility: 10mi
Dew Point: 37°   Wind: 10mph
Humidity: 64%   Direction: 320°NW
Pressure: 29.75"   Gusts: NA
Location:  34.7°N, 98.95°W
Report Text: KLTS 240058Z AUTO 32009KT 10SM CLR 09/03 A2975 RMK AO2 SLP074 T00940029 $
Loading
Personal Weather Stations






























Interactive Weather Map New forecast layout! Learn more

10-Day Weather Forecast

Advertisements
Track Severe Weather on mobile